sensor_id;sensor_type;location;lat;lon;timestamp;P1;durP1;ratioP1;P2;durP2;ratioP2
64037;SDS011;54641;50.168;8.492;2023-12-14T00:01:46;9.00;;;2.50;;
64037;SDS011;54641;50.168;8.492;2023-12-14T00:04:17;9.50;;;2.30;;
64037;SDS011;54641;50.168;8.492;2023-12-14T00:06:47;6.50;;;1.80;;
64037;SDS011;54641;50.168;8.492;2023-12-14T00:09:17;4.50;;;1.80;;
64037;SDS011;54641;50.168;8.492;2023-12-14T00:11:48;3.90;;;1.50;;
64037;SDS011;54641;50.168;8.492;2023-12-14T00:14:18;5.50;;;2.00;;
64037;SDS011;54641;50.168;8.492;2023-12-14T00:16:48;6.10;;;2.00;;
64037;SDS011;54641;50.168;8.492;2023-12-14T00:19:18;5.40;;;1.70;;
64037;SDS011;54641;50.168;8.492;2023-12-14T00:21:49;3.60;;;1.50;;
64037;SDS011;54641;50.168;8.492;2023-12-14T00:24:19;5.00;;;1.40;;
64037;SDS011;54641;50.168;8.492;2023-12-14T00:26:49;3.90;;;1.70;;
64037;SDS011;54641;50.168;8.492;2023-12-14T00:29:19;7.00;;;1.80;;
64037;SDS011;54641;50.168;8.492;2023-12-14T00:31:50;5.70;;;2.70;;
64037;SDS011;54641;50.168;8.492;2023-12-14T00:34:20;12.00;;;4.00;;
64037;SDS011;54641;50.168;8.492;2023-12-14T00:36:51;10.30;;;4.10;;
64037;SDS011;54641;50.168;8.492;2023-12-14T00:39:21;9.20;;;4.60;;
64037;SDS011;54641;50.168;8.492;2023-12-14T00:41:51;11.60;;;5.10;;
64037;SDS011;54641;50.168;8.492;2023-12-14T00:44:21;10.20;;;5.30;;
64037;SDS011;54641;50.168;8.492;2023-12-14T00:46:52;15.30;;;6.20;;
64037;SDS011;54641;50.168;8.492;2023-12-14T00:49:22;15.30;;;5.90;;
64037;SDS011;54641;50.168;8.492;2023-12-14T00:51:52;15.10;;;7.10;;
64037;SDS011;54641;50.168;8.492;2023-12-14T00:54:22;14.00;;;6.30;;
64037;SDS011;54641;50.168;8.492;2023-12-14T00:56:52;14.60;;;6.50;;
64037;SDS011;54641;50.168;8.492;2023-12-14T00:59:23;13.60;;;5.90;;
64037;SDS011;54641;50.168;8.492;2023-12-14T01:01:53;8.00;;;4.80;;
64037;SDS011;54641;50.168;8.492;2023-12-14T01:04:23;13.30;;;4.90;;
64037;SDS011;54641;50.168;8.492;2023-12-14T01:06:54;12.10;;;4.80;;
64037;SDS011;54641;50.168;8.492;2023-12-14T01:09:24;8.90;;;4.90;;
64037;SDS011;54641;50.168;8.492;2023-12-14T01:11:54;13.80;;;4.70;;
64037;SDS011;54641;50.168;8.492;2023-12-14T01:14:25;12.30;;;5.00;;
64037;SDS011;54641;50.168;8.492;2023-12-14T01:16:55;8.60;;;4.50;;
64037;SDS011;54641;50.168;8.492;2023-12-14T01:19:25;14.30;;;6.60;;
64037;SDS011;54641;50.168;8.492;2023-12-14T01:21:55;16.70;;;8.20;;
64037;SDS011;54641;50.168;8.492;2023-12-14T01:24:26;14.20;;;7.60;;
64037;SDS011;54641;50.168;8.492;2023-12-14T01:26:56;15.80;;;8.00;;
64037;SDS011;54641;50.168;8.492;2023-12-14T01:29:26;17.10;;;9.40;;
64037;SDS011;54641;50.168;8.492;2023-12-14T01:31:56;17.50;;;8.70;;
64037;SDS011;54641;50.168;8.492;2023-12-14T01:34:27;15.90;;;9.40;;
64037;SDS011;54641;50.168;8.492;2023-12-14T01:37:42;20.60;;;10.70;;
64037;SDS011;54641;50.168;8.492;2023-12-14T01:40:13;22.90;;;11.50;;
64037;SDS011;54641;50.168;8.492;2023-12-14T01:42:43;22.00;;;9.30;;
64037;SDS011;54641;50.168;8.492;2023-12-14T01:45:13;17.40;;;6.70;;
64037;SDS011;54641;50.168;8.492;2023-12-14T01:47:44;13.30;;;6.40;;
64037;SDS011;54641;50.168;8.492;2023-12-14T01:50:15;11.80;;;5.50;;
64037;SDS011;54641;50.168;8.492;2023-12-14T01:52:45;12.90;;;6.00;;
64037;SDS011;54641;50.168;8.492;2023-12-14T01:55:15;14.40;;;7.60;;
64037;SDS011;54641;50.168;8.492;2023-12-14T01:57:46;14.10;;;6.90;;
64037;SDS011;54641;50.168;8.492;2023-12-14T02:00:18;16.40;;;9.60;;
64037;SDS011;54641;50.168;8.492;2023-12-14T02:02:53;11.70;;;7.10;;
64037;SDS011;54641;50.168;8.492;2023-12-14T02:05:24;14.80;;;7.90;;
64037;SDS011;54641;50.168;8.492;2023-12-14T02:07:54;17.00;;;9.00;;
64037;SDS011;54641;50.168;8.492;2023-12-14T02:10:25;20.40;;;10.90;;
64037;SDS011;54641;50.168;8.492;2023-12-14T02:12:56;20.90;;;11.40;;
64037;SDS011;54641;50.168;8.492;2023-12-14T02:15:26;22.40;;;11.40;;
64037;SDS011;54641;50.168;8.492;2023-12-14T02:17:57;21.20;;;11.20;;
64037;SDS011;54641;50.168;8.492;2023-12-14T02:20:27;19.00;;;10.40;;
64037;SDS011;54641;50.168;8.492;2023-12-14T02:22:57;20.40;;;9.90;;
64037;SDS011;54641;50.168;8.492;2023-12-14T02:25:29;21.90;;;11.10;;
64037;SDS011;54641;50.168;8.492;2023-12-14T02:27:59;19.20;;;10.90;;
64037;SDS011;54641;50.168;8.492;2023-12-14T02:30:30;27.90;;;12.50;;
64037;SDS011;54641;50.168;8.492;2023-12-14T02:33:00;21.60;;;11.90;;
64037;SDS011;54641;50.168;8.492;2023-12-14T02:35:31;23.20;;;12.70;;
64037;SDS011;54641;50.168;8.492;2023-12-14T02:38:01;23.40;;;11.00;;
64037;SDS011;54641;50.168;8.492;2023-12-14T02:40:31;21.70;;;12.30;;
64037;SDS011;54641;50.168;8.492;2023-12-14T02:43:02;20.10;;;11.40;;
64037;SDS011;54641;50.168;8.492;2023-12-14T02:45:32;23.80;;;12.20;;
64037;SDS011;54641;50.168;8.492;2023-12-14T02:48:02;27.10;;;13.00;;
64037;SDS011;54641;50.168;8.492;2023-12-14T02:50:33;27.80;;;12.80;;
64037;SDS011;54641;50.168;8.492;2023-12-14T02:53:04;19.30;;;10.80;;
64037;SDS011;54641;50.168;8.492;2023-12-14T02:55:34;17.00;;;8.90;;
64037;SDS011;54641;50.168;8.492;2023-12-14T02:58:04;15.50;;;8.50;;
64037;SDS011;54641;50.168;8.492;2023-12-14T03:00:35;15.00;;;7.80;;
64037;SDS011;54641;50.168;8.492;2023-12-14T03:03:05;16.40;;;8.40;;
64037;SDS011;54641;50.168;8.492;2023-12-14T03:05:35;20.60;;;8.90;;
64037;SDS011;54641;50.168;8.492;2023-12-14T03:08:06;19.00;;;8.00;;
64037;SDS011;54641;50.168;8.492;2023-12-14T03:10:36;14.20;;;7.00;;
64037;SDS011;54641;50.168;8.492;2023-12-14T03:13:07;11.90;;;6.20;;
64037;SDS011;54641;50.168;8.492;2023-12-14T03:15:37;11.50;;;6.10;;
64037;SDS011;54641;50.168;8.492;2023-12-14T03:18:07;15.00;;;6.50;;
64037;SDS011;54641;50.168;8.492;2023-12-14T03:20:38;12.10;;;6.30;;
64037;SDS011;54641;50.168;8.492;2023-12-14T03:23:08;11.70;;;6.10;;
64037;SDS011;54641;50.168;8.492;2023-12-14T03:25:38;10.90;;;5.10;;
64037;SDS011;54641;50.168;8.492;2023-12-14T03:28:08;12.80;;;4.00;;
64037;SDS011;54641;50.168;8.492;2023-12-14T03:30:39;11.30;;;4.50;;
64037;SDS011;54641;50.168;8.492;2023-12-14T03:33:09;8.40;;;3.00;;
64037;SDS011;54641;50.168;8.492;2023-12-14T03:35:39;7.80;;;2.70;;
64037;SDS011;54641;50.168;8.492;2023-12-14T03:38:11;9.50;;;3.40;;
64037;SDS011;54641;50.168;8.492;2023-12-14T03:40:42;6.50;;;2.60;;
64037;SDS011;54641;50.168;8.492;2023-12-14T03:43:12;7.60;;;2.00;;
64037;SDS011;54641;50.168;8.492;2023-12-14T03:45:42;11.10;;;2.20;;
64037;SDS011;54641;50.168;8.492;2023-12-14T03:48:12;5.30;;;2.00;;
64037;SDS011;54641;50.168;8.492;2023-12-14T03:50:43;8.40;;;1.60;;
64037;SDS011;54641;50.168;8.492;2023-12-14T03:53:13;4.70;;;1.60;;
64037;SDS011;54641;50.168;8.492;2023-12-14T03:55:44;6.40;;;2.10;;
64037;SDS011;54641;50.168;8.492;2023-12-14T03:58:14;5.30;;;1.40;;
64037;SDS011;54641;50.168;8.492;2023-12-14T04:00:44;9.10;;;1.90;;
64037;SDS011;54641;50.168;8.492;2023-12-14T04:03:15;5.70;;;2.10;;
64037;SDS011;54641;50.168;8.492;2023-12-14T04:05:45;4.50;;;1.60;;
64037;SDS011;54641;50.168;8.492;2023-12-14T04:08:15;5.10;;;1.60;;
64037;SDS011;54641;50.168;8.492;2023-12-14T04:10:46;7.20;;;1.90;;
64037;SDS011;54641;50.168;8.492;2023-12-14T04:13:16;8.90;;;2.50;;
64037;SDS011;54641;50.168;8.492;2023-12-14T04:15:47;6.40;;;2.00;;
64037;SDS011;54641;50.168;8.492;2023-12-14T04:18:17;4.40;;;2.10;;
64037;SDS011;54641;50.168;8.492;2023-12-14T04:20:47;7.20;;;2.40;;
64037;SDS011;54641;50.168;8.492;2023-12-14T04:23:18;6.70;;;2.30;;
64037;SDS011;54641;50.168;8.492;2023-12-14T04:25:48;6.50;;;2.70;;
64037;SDS011;54641;50.168;8.492;2023-12-14T04:28:18;9.00;;;3.00;;
64037;SDS011;54641;50.168;8.492;2023-12-14T04:30:49;12.50;;;3.40;;
64037;SDS011;54641;50.168;8.492;2023-12-14T04:33:19;5.90;;;3.30;;
64037;SDS011;54641;50.168;8.492;2023-12-14T04:35:49;6.40;;;2.40;;
64037;SDS011;54641;50.168;8.492;2023-12-14T04:38:20;5.70;;;3.00;;
64037;SDS011;54641;50.168;8.492;2023-12-14T04:40:51;6.00;;;3.00;;
64037;SDS011;54641;50.168;8.492;2023-12-14T04:43:21;10.00;;;3.00;;
64037;SDS011;54641;50.168;8.492;2023-12-14T04:45:51;9.80;;;3.60;;
64037;SDS011;54641;50.168;8.492;2023-12-14T04:48:22;9.70;;;3.30;;
64037;SDS011;54641;50.168;8.492;2023-12-14T04:50:52;7.10;;;2.80;;
64037;SDS011;54641;50.168;8.492;2023-12-14T04:53:22;7.40;;;3.40;;
64037;SDS011;54641;50.168;8.492;2023-12-14T04:55:53;7.90;;;3.10;;
64037;SDS011;54641;50.168;8.492;2023-12-14T04:58:24;5.70;;;3.20;;
64037;SDS011;54641;50.168;8.492;2023-12-14T05:00:54;9.30;;;4.50;;
64037;SDS011;54641;50.168;8.492;2023-12-14T05:03:24;7.80;;;4.40;;
64037;SDS011;54641;50.168;8.492;2023-12-14T05:05:55;11.10;;;4.80;;
64037;SDS011;54641;50.168;8.492;2023-12-14T05:08:25;9.30;;;3.90;;
64037;SDS011;54641;50.168;8.492;2023-12-14T05:10:55;8.50;;;4.40;;
64037;SDS011;54641;50.168;8.492;2023-12-14T05:13:26;11.20;;;4.80;;
64037;SDS011;54641;50.168;8.492;2023-12-14T05:15:56;13.40;;;5.20;;
64037;SDS011;54641;50.168;8.492;2023-12-14T05:18:27;13.00;;;5.80;;
64037;SDS011;54641;50.168;8.492;2023-12-14T05:20:59;9.90;;;4.60;;
64037;SDS011;54641;50.168;8.492;2023-12-14T05:23:30;11.10;;;6.60;;
64037;SDS011;54641;50.168;8.492;2023-12-14T05:26:01;13.90;;;8.10;;
64037;SDS011;54641;50.168;8.492;2023-12-14T05:28:31;11.60;;;6.80;;
64037;SDS011;54641;50.168;8.492;2023-12-14T05:31:02;13.30;;;7.10;;
64037;SDS011;54641;50.168;8.492;2023-12-14T05:33:37;13.10;;;8.30;;
64037;SDS011;54641;50.168;8.492;2023-12-14T05:38:39;12.30;;;6.50;;
64037;SDS011;54641;50.168;8.492;2023-12-14T05:41:10;15.20;;;7.90;;
64037;SDS011;54641;50.168;8.492;2023-12-14T05:43:41;16.20;;;5.40;;
64037;SDS011;54641;50.168;8.492;2023-12-14T05:46:20;14.80;;;6.00;;
64037;SDS011;54641;50.168;8.492;2023-12-14T05:48:51;12.90;;;6.40;;
64037;SDS011;54641;50.168;8.492;2023-12-14T05:51:28;11.00;;;5.70;;
64037;SDS011;54641;50.168;8.492;2023-12-14T05:53:59;15.10;;;6.60;;
64037;SDS011;54641;50.168;8.492;2023-12-14T05:56:30;14.60;;;6.70;;
64037;SDS011;54641;50.168;8.492;2023-12-14T05:59:01;14.90;;;6.00;;
